createdAt,value
2023-03-15T00:00:32.702Z,6.07
2023-03-15T00:06:10.721Z,5.68
2023-03-15T00:08:57.511Z,6.45
2023-03-15T00:11:44.110Z,5.47
2023-03-15T00:14:31.895Z,5.68
2023-03-15T00:17:18.728Z,6.25
2023-03-15T00:20:07.630Z,5.72
2023-03-15T00:22:54.576Z,6.30
2023-03-15T00:25:45.460Z,7.25
2023-03-15T00:28:34.051Z,5.70
2023-03-15T00:31:24.102Z,6.00
2023-03-15T00:34:14.069Z,5.45
2023-03-15T00:37:00.895Z,5.93
2023-03-15T00:39:48.133Z,5.05
2023-03-15T00:42:35.080Z,4.75
2023-03-15T00:45:22.248Z,4.90
2023-03-15T00:48:09.284Z,5.35
2023-03-15T00:51:16.086Z,4.72
2023-03-15T00:54:07.087Z,3.97
2023-03-15T00:56:53.694Z,4.72
2023-03-15T00:59:40.525Z,3.75
2023-03-15T01:02:27.041Z,3.55
2023-03-15T01:05:14.399Z,3.30
2023-03-15T01:08:03.258Z,4.10
2023-03-15T01:10:50.969Z,3.63
2023-03-15T01:13:38.211Z,4.15
2023-03-15T01:16:25.132Z,3.47
2023-03-15T01:19:12.812Z,3.78
2023-03-15T01:22:00.844Z,2.88
2023-03-15T01:24:47.461Z,3.13
2023-03-15T01:27:34.392Z,3.10
2023-03-15T01:30:23.570Z,2.90
2023-03-15T01:33:10.467Z,2.72
2023-03-15T01:36:05.469Z,2.10
2023-03-15T01:38:55.239Z,2.40
2023-03-15T01:41:47.340Z,2.63
2023-03-15T01:45:28.469Z,2.72
2023-03-15T01:48:15.547Z,2.40
2023-03-15T01:51:14.396Z,2.30
2023-03-15T01:54:17.518Z,2.63
2023-03-15T01:57:08.686Z,2.55
2023-03-15T02:00:12.821Z,1.95
2023-03-15T02:03:04.066Z,2.30
2023-03-15T02:05:58.083Z,3.20
2023-03-15T02:09:09.460Z,2.10
2023-03-15T02:11:59.676Z,2.58
2023-03-15T02:14:46.470Z,1.88
2023-03-15T02:17:41.959Z,2.20
2023-03-15T02:20:45.406Z,1.92
2023-03-15T02:23:32.292Z,2.20
2023-03-15T02:26:25.999Z,2.30
2023-03-15T02:29:12.808Z,1.90
2023-03-15T02:32:00.443Z,2.15
2023-03-15T02:34:46.678Z,2.20
2023-03-15T02:37:33.312Z,2.35
2023-03-15T02:40:22.207Z,2.55
2023-03-15T02:43:16.742Z,2.40
2023-03-15T02:46:06.892Z,2.35
2023-03-15T02:48:55.999Z,1.80
2023-03-15T02:51:42.380Z,1.88
2023-03-15T02:54:29.175Z,2.22
2023-03-15T02:57:18.210Z,2.60
2023-03-15T03:00:14.342Z,1.70
2023-03-15T03:03:01.989Z,2.53
2023-03-15T03:05:48.835Z,1.70
2023-03-15T03:08:35.549Z,2.00
2023-03-15T03:11:22.372Z,1.60
2023-03-15T03:14:09.810Z,1.80
2023-03-15T03:16:56.790Z,2.85
2023-03-15T03:19:43.701Z,1.95
2023-03-15T03:22:30.987Z,1.90
2023-03-15T03:25:18.087Z,3.00
2023-03-15T03:28:06.425Z,1.92
2023-03-15T03:30:56.603Z,1.80
2023-03-15T03:33:43.423Z,2.28
2023-03-15T03:36:29.686Z,2.92
2023-03-15T03:39:16.742Z,1.73
2023-03-15T03:42:04.792Z,2.40
2023-03-15T03:44:51.840Z,2.58
2023-03-15T03:47:39.219Z,1.90
2023-03-15T03:50:26.830Z,2.65
2023-03-15T03:53:13.480Z,2.42
2023-03-15T03:56:04.214Z,2.38
2023-03-15T03:58:51.201Z,2.28
2023-03-15T04:01:58.550Z,1.80
2023-03-15T04:04:45.463Z,2.20
2023-03-15T04:07:39.017Z,1.98
2023-03-15T04:10:28.799Z,1.92
2023-03-15T04:13:15.705Z,2.55
2023-03-15T04:16:04.085Z,2.30
2023-03-15T04:19:01.963Z,2.20
2023-03-15T04:21:52.658Z,2.00
2023-03-15T04:25:03.275Z,1.77
2023-03-15T04:28:12.287Z,1.63
2023-03-15T04:31:10.824Z,2.20
2023-03-15T04:33:57.672Z,2.83
2023-03-15T04:37:03.189Z,2.85
2023-03-15T04:40:13.423Z,2.25
2023-03-15T04:43:13.219Z,3.10
2023-03-15T04:46:09.546Z,2.08
2023-03-15T04:49:25.953Z,2.10
2023-03-15T04:52:30.589Z,2.50
2023-03-15T04:55:17.706Z,2.03
2023-03-15T04:58:35.667Z,2.45
2023-03-15T05:01:31.861Z,2.30
2023-03-15T05:04:36.441Z,2.80
2023-03-15T05:07:52.500Z,2.42
2023-03-15T05:10:55.174Z,2.97
2023-03-15T05:14:05.442Z,2.60
2023-03-15T05:17:30.802Z,2.10
2023-03-15T05:20:20.021Z,2.50
2023-03-15T05:23:26.730Z,2.60
2023-03-15T05:26:31.465Z,2.67
2023-03-15T05:29:36.182Z,2.83
2023-03-15T05:32:45.016Z,2.40
2023-03-15T05:35:31.568Z,2.85
2023-03-15T05:38:57.743Z,2.20
2023-03-15T05:41:54.144Z,2.80
2023-03-15T05:44:51.511Z,2.72
2023-03-15T05:47:56.699Z,2.50
2023-03-15T05:50:54.363Z,3.00
2023-03-15T05:54:00.766Z,3.00
2023-03-15T05:57:04.955Z,2.78
2023-03-15T06:00:18.682Z,3.13
2023-03-15T06:03:11.243Z,2.22
2023-03-15T06:06:15.849Z,2.53
2023-03-15T06:09:02.795Z,2.90
2023-03-15T06:11:49.664Z,2.60
2023-03-15T06:14:36.579Z,4.78
2023-03-15T06:17:27.199Z,4.53
2023-03-15T06:20:14.810Z,5.88
2023-03-15T06:23:01.321Z,3.97
2023-03-15T06:26:08.087Z,7.88
2023-03-15T06:28:56.978Z,7.18
2023-03-15T06:31:45.144Z,6.57
2023-03-15T06:34:31.968Z,6.55
2023-03-15T06:37:29.041Z,4.20
2023-03-15T06:40:21.452Z,4.20
2023-03-15T06:43:18.407Z,3.15
2023-03-15T06:46:08.919Z,2.55
2023-03-15T06:48:56.138Z,3.35
2023-03-15T06:51:45.276Z,3.55
2023-03-15T06:54:32.367Z,2.97
2023-03-15T06:57:19.738Z,3.30
2023-03-15T07:00:11.433Z,3.33
2023-03-15T07:02:58.270Z,3.63
2023-03-15T07:05:46.852Z,3.50
2023-03-15T07:08:33.443Z,3.65
2023-03-15T07:11:21.117Z,2.80
2023-03-15T07:14:11.934Z,2.30
2023-03-15T07:17:01.021Z,3.08
2023-03-15T07:19:56.224Z,2.10
2023-03-15T07:22:46.340Z,2.60
2023-03-15T07:25:37.597Z,2.40
2023-03-15T07:28:29.093Z,4.18
2023-03-15T07:31:15.907Z,3.00
2023-03-15T07:34:03.137Z,3.03
2023-03-15T07:36:52.161Z,3.08
2023-03-15T07:39:38.859Z,6.65
2023-03-15T07:42:25.270Z,4.32
2023-03-15T07:45:16.012Z,31.73
2023-03-15T07:48:02.236Z,14.35
2023-03-15T07:50:51.941Z,12.55
2023-03-15T07:53:38.086Z,6.97
2023-03-15T07:56:27.227Z,4.22
2023-03-15T07:59:15.207Z,5.10
2023-03-15T08:02:05.776Z,7.78
2023-03-15T08:04:52.153Z,5.53
2023-03-15T08:07:39.093Z,4.20
2023-03-15T08:10:25.306Z,4.65
2023-03-15T08:13:13.059Z,5.18
2023-03-15T08:15:59.664Z,4.82
2023-03-15T08:18:46.837Z,4.85
2023-03-15T08:21:33.923Z,4.82
2023-03-15T08:24:23.828Z,5.15
2023-03-15T08:27:11.282Z,3.85
2023-03-15T08:29:58.123Z,4.57
2023-03-15T08:32:46.413Z,6.30
2023-03-15T08:35:34.466Z,4.28
2023-03-15T08:38:20.986Z,4.57
2023-03-15T08:41:08.341Z,5.00
2023-03-15T08:43:55.179Z,5.75
2023-03-15T08:46:44.200Z,5.57
2023-03-15T08:49:30.500Z,6.07
2023-03-15T08:52:18.208Z,4.38
2023-03-15T08:55:05.685Z,5.47
2023-03-15T08:57:52.787Z,5.30
2023-03-15T09:00:39.367Z,4.57
2023-03-15T09:03:26.335Z,6.25
2023-03-15T09:06:13.785Z,4.68
2023-03-15T09:09:00.753Z,3.58
2023-03-15T09:11:47.491Z,3.08
2023-03-15T09:14:34.185Z,4.18
2023-03-15T09:17:23.188Z,3.00
2023-03-15T09:20:16.438Z,2.83
2023-03-15T09:23:20.844Z,3.55
2023-03-15T09:26:11.598Z,4.35
2023-03-15T09:29:00.943Z,2.90
2023-03-15T09:31:47.879Z,3.97
2023-03-15T09:34:41.690Z,3.47
2023-03-15T09:37:31.967Z,3.20
2023-03-15T09:40:30.395Z,3.13
2023-03-15T09:43:42.005Z,3.42
2023-03-15T09:46:42.089Z,4.28
2023-03-15T09:49:32.475Z,3.60
2023-03-15T09:52:36.267Z,3.67
2023-03-15T09:55:25.378Z,3.30
2023-03-15T09:58:44.658Z,4.75
2023-03-15T10:01:40.998Z,3.92
2023-03-15T10:04:30.810Z,2.85
2023-03-15T10:07:22.880Z,4.68
2023-03-15T10:10:23.315Z,4.72
2023-03-15T10:13:24.772Z,3.33
2023-03-15T10:19:30.398Z,2.58
2023-03-15T10:22:30.354Z,3.75
2023-03-15T10:25:32.638Z,2.90
2023-03-15T10:28:28.270Z,2.90
2023-03-15T10:31:36.572Z,2.92
2023-03-15T10:34:30.574Z,2.58
2023-03-15T10:37:20.248Z,3.70
2023-03-15T10:40:13.865Z,2.67
2023-03-15T10:43:00.936Z,2.80
2023-03-15T10:46:00.941Z,2.38
2023-03-15T10:49:01.095Z,5.78
2023-03-15T10:51:49.068Z,2.40
2023-03-15T10:54:42.048Z,2.60
2023-03-15T10:57:52.148Z,3.53
2023-03-15T11:00:41.775Z,5.40
2023-03-15T11:03:28.723Z,3.72
2023-03-15T11:06:21.842Z,2.67
2023-03-15T11:09:14.711Z,2.97
2023-03-15T11:12:04.167Z,2.92
2023-03-15T11:14:53.369Z,3.03
2023-03-15T11:17:47.574Z,2.40
2023-03-15T11:20:39.747Z,2.65
2023-03-15T11:23:35.557Z,2.67
2023-03-15T11:26:32.483Z,2.67
2023-03-15T11:29:31.974Z,2.75
2023-03-15T11:32:18.477Z,2.70
2023-03-15T11:35:06.527Z,2.35
2023-03-15T11:38:14.643Z,2.90
2023-03-15T11:41:37.534Z,4.07
2023-03-15T11:44:44.492Z,2.55
2023-03-15T11:47:52.739Z,2.60
2023-03-15T11:50:40.343Z,2.42
2023-03-15T11:53:33.350Z,2.65
2023-03-15T11:56:30.761Z,3.00
2023-03-15T11:59:40.648Z,4.32
2023-03-15T12:02:27.342Z,2.63
2023-03-15T12:05:47.686Z,2.67
2023-03-15T12:08:55.044Z,2.70
2023-03-15T12:11:43.129Z,3.45
2023-03-15T12:14:32.267Z,2.88
2023-03-15T12:17:31.631Z,3.97
2023-03-15T12:20:43.119Z,2.60
2023-03-15T12:23:38.948Z,5.20
2023-03-15T12:26:54.001Z,2.83
2023-03-15T12:29:45.760Z,3.25
2023-03-15T12:32:44.522Z,2.47
2023-03-15T12:35:47.540Z,2.13
2023-03-15T12:38:37.731Z,2.10
2023-03-15T12:41:49.593Z,2.22
2023-03-15T12:44:49.222Z,3.00
2023-03-15T12:47:51.707Z,2.95
2023-03-15T12:50:51.484Z,2.55
2023-03-15T12:53:48.252Z,2.70
2023-03-15T12:56:42.913Z,2.03
2023-03-15T12:59:59.181Z,3.65
2023-03-15T13:02:50.882Z,2.60
2023-03-15T13:06:09.443Z,3.08
2023-03-15T13:08:58.846Z,3.13
2023-03-15T13:12:15.538Z,2.83
2023-03-15T13:15:19.961Z,4.30
2023-03-15T13:18:18.231Z,2.20
2023-03-15T13:21:21.265Z,4.45
2023-03-15T13:24:34.554Z,3.42
2023-03-15T13:27:28.512Z,3.10
2023-03-15T13:30:40.106Z,5.05
2023-03-15T13:33:30.815Z,3.60
2023-03-15T13:36:23.762Z,2.20
2023-03-15T13:39:18.571Z,1.50
2023-03-15T13:42:24.696Z,1.58
2023-03-15T13:45:21.757Z,2.13
2023-03-15T13:48:13.469Z,2.63
2023-03-15T13:51:08.409Z,1.60
2023-03-15T13:53:59.700Z,2.13
2023-03-15T13:59:54.484Z,2.67
2023-03-15T14:02:46.483Z,1.83
2023-03-15T14:05:44.039Z,1.65
2023-03-15T14:08:40.490Z,2.00
2023-03-15T14:11:40.484Z,2.05
2023-03-15T14:14:29.668Z,2.40
2023-03-15T14:17:31.153Z,2.80
2023-03-15T14:20:19.494Z,1.83
2023-03-15T14:23:10.722Z,2.15
2023-03-15T14:26:18.686Z,3.47
2023-03-15T14:29:21.770Z,5.97
2023-03-15T14:32:42.335Z,4.78
2023-03-15T14:35:43.597Z,6.55
2023-03-15T14:38:38.656Z,3.60
2023-03-15T14:41:31.777Z,2.45
2023-03-15T14:44:22.315Z,2.58
2023-03-15T14:47:22.566Z,2.60
2023-03-15T14:50:31.093Z,2.33
2023-03-15T14:53:19.775Z,2.55
2023-03-15T14:56:06.669Z,3.05
2023-03-15T14:58:54.505Z,2.35
2023-03-15T15:01:46.834Z,4.25
2023-03-15T15:04:34.819Z,2.30
2023-03-15T15:07:24.137Z,4.03
2023-03-15T15:10:11.253Z,8.38
2023-03-15T15:13:05.916Z,11.13
2023-03-15T15:15:57.259Z,5.05
2023-03-15T15:18:43.951Z,2.92
2023-03-15T15:21:33.864Z,4.03
2023-03-15T15:24:24.552Z,8.40
2023-03-15T15:27:14.220Z,7.95
2023-03-15T15:30:00.925Z,4.68
2023-03-15T15:33:12.545Z,4.80
2023-03-15T15:36:01.199Z,30.88
2023-03-15T15:38:48.671Z,20.38
2023-03-15T15:41:38.785Z,17.67
2023-03-15T15:44:29.587Z,5.95
2023-03-15T15:47:23.254Z,3.40
2023-03-15T15:50:20.453Z,3.85
2023-03-15T15:53:16.678Z,4.45
2023-03-15T15:56:05.005Z,4.20
2023-03-15T15:58:51.976Z,3.15
2023-03-15T16:01:49.248Z,5.05
2023-03-15T16:04:43.668Z,4.90
2023-03-15T16:07:32.400Z,4.75
2023-03-15T16:10:31.280Z,3.73
2023-03-15T16:13:18.391Z,3.67
2023-03-15T16:16:05.392Z,4.90
2023-03-15T16:18:52.278Z,5.32
2023-03-15T16:21:52.069Z,4.40
2023-03-15T16:24:44.396Z,3.85
2023-03-15T16:27:53.222Z,5.15
2023-03-15T16:30:46.694Z,6.13
2023-03-15T16:33:34.875Z,6.40
2023-03-15T16:36:22.719Z,6.47
2023-03-15T16:39:14.571Z,6.57
2023-03-15T16:42:05.849Z,6.22
2023-03-15T16:44:58.933Z,5.80
2023-03-15T16:47:48.667Z,5.25
2023-03-15T16:50:37.504Z,4.57
2023-03-15T16:53:25.471Z,4.57
2023-03-15T16:56:24.635Z,4.40
2023-03-15T16:59:14.567Z,4.40
2023-03-15T17:02:01.817Z,4.65
2023-03-15T17:04:51.326Z,5.00
2023-03-15T17:07:42.654Z,11.00
2023-03-15T17:10:33.274Z,27.50
2023-03-15T17:13:27.506Z,36.15
2023-03-15T17:16:16.666Z,30.80
2023-03-15T17:19:11.690Z,23.98
2023-03-15T17:21:59.220Z,21.48
2023-03-15T17:24:47.843Z,23.50
2023-03-15T17:27:42.545Z,21.08
2023-03-15T17:30:34.503Z,15.77
2023-03-15T17:33:36.599Z,16.75
2023-03-15T17:36:25.147Z,16.77
2023-03-15T17:39:17.507Z,18.80
2023-03-15T17:42:05.425Z,25.73
2023-03-15T17:44:51.945Z,28.13
2023-03-15T17:47:39.046Z,36.35
2023-03-15T17:50:32.537Z,68.68
2023-03-15T17:53:34.436Z,51.47
2023-03-15T17:56:39.736Z,56.70
2023-03-15T17:59:39.562Z,40.22
2023-03-15T18:02:43.399Z,25.33
2023-03-15T18:05:39.732Z,19.73
2023-03-15T18:08:31.487Z,18.58
2023-03-15T18:11:32.277Z,16.02
2023-03-15T18:14:21.032Z,14.23
2023-03-15T18:17:11.977Z,11.98
2023-03-15T18:19:59.568Z,10.43
2023-03-15T18:22:48.992Z,9.63
2023-03-15T18:25:36.222Z,9.45
2023-03-15T18:28:24.289Z,17.35
2023-03-15T18:31:15.421Z,9.52
2023-03-15T18:34:03.978Z,8.93
2023-03-15T18:36:54.463Z,9.32
2023-03-15T18:39:42.650Z,9.02
2023-03-15T18:42:31.909Z,9.30
2023-03-15T18:45:32.023Z,9.68
2023-03-15T18:48:22.861Z,15.27
2023-03-15T18:51:17.832Z,23.95
2023-03-15T18:54:07.517Z,30.60
2023-03-15T18:56:54.842Z,32.53
2023-03-15T18:59:46.147Z,27.90
2023-03-15T19:02:35.673Z,21.08
2023-03-15T19:05:22.324Z,21.08
2023-03-15T19:08:14.617Z,17.65
2023-03-15T19:11:02.491Z,17.63
2023-03-15T19:13:52.369Z,18.15
2023-03-15T19:16:39.062Z,16.30
2023-03-15T19:19:26.031Z,13.98
2023-03-15T19:22:13.625Z,15.75
2023-03-15T19:25:02.539Z,17.08
2023-03-15T19:27:49.248Z,19.88
2023-03-15T19:30:39.619Z,20.33
2023-03-15T19:33:26.321Z,19.67
2023-03-15T19:36:13.258Z,23.17
2023-03-15T19:39:00.207Z,30.65
2023-03-15T19:41:47.248Z,29.80
2023-03-15T19:44:36.272Z,29.15
2023-03-15T19:47:32.033Z,26.77
2023-03-15T19:50:20.016Z,24.38
2023-03-15T19:53:09.244Z,24.40
2023-03-15T19:55:55.891Z,27.70
2023-03-15T19:58:42.908Z,26.15
2023-03-15T20:01:32.610Z,24.20
2023-03-15T20:04:25.023Z,24.52
2023-03-15T20:07:13.259Z,22.17
2023-03-15T20:10:02.258Z,22.65
2023-03-15T20:12:48.974Z,20.35
2023-03-15T20:15:35.802Z,19.38
2023-03-15T20:18:24.206Z,22.00
2023-03-15T20:21:11.168Z,23.50
2023-03-15T20:23:57.812Z,20.88
2023-03-15T20:26:51.562Z,19.95
2023-03-15T20:29:38.833Z,19.90
2023-03-15T20:32:26.516Z,22.98
2023-03-15T20:35:16.153Z,22.52
2023-03-15T20:38:08.567Z,18.95
2023-03-15T20:40:59.815Z,18.55
2023-03-15T20:43:47.874Z,18.23
2023-03-15T20:46:37.385Z,18.52
2023-03-15T20:49:26.961Z,18.65
2023-03-15T20:52:15.256Z,20.02
2023-03-15T20:55:03.685Z,19.45
2023-03-15T20:57:58.896Z,29.13
2023-03-15T21:00:45.960Z,26.17
2023-03-15T21:03:35.755Z,39.40
2023-03-15T21:06:22.844Z,33.63
2023-03-15T21:09:11.396Z,30.23
2023-03-15T21:11:59.981Z,26.33
2023-03-15T21:14:46.800Z,28.48
2023-03-15T21:17:33.799Z,29.13
2023-03-15T21:20:20.113Z,30.65
2023-03-15T21:23:07.086Z,31.52
2023-03-15T21:25:58.799Z,33.30
2023-03-15T21:28:46.822Z,33.60
2023-03-15T21:31:33.875Z,30.80
2023-03-15T21:34:24.955Z,30.40
2023-03-15T21:37:11.259Z,27.73
2023-03-15T21:39:58.130Z,23.92
2023-03-15T21:42:47.979Z,23.30
2023-03-15T21:45:34.918Z,22.17
2023-03-15T21:48:21.675Z,20.65
2023-03-15T21:51:08.668Z,20.88
2023-03-15T21:53:58.453Z,18.52
2023-03-15T21:56:45.926Z,16.88
2023-03-15T21:59:38.003Z,15.57
2023-03-15T22:02:25.052Z,15.60
2023-03-15T22:05:13.480Z,15.95
2023-03-15T22:08:01.006Z,14.57
2023-03-15T22:10:47.761Z,12.95
2023-03-15T22:13:35.910Z,12.60
2023-03-15T22:16:31.089Z,13.02
2023-03-15T22:19:22.648Z,12.50
2023-03-15T22:22:09.045Z,14.43
2023-03-15T22:24:55.567Z,14.10
2023-03-15T22:27:45.170Z,13.30
2023-03-15T22:30:32.390Z,12.82
2023-03-15T22:33:25.794Z,12.75
2023-03-15T22:36:13.222Z,13.07
2023-03-15T22:39:01.440Z,13.23
2023-03-15T22:41:48.375Z,14.35
2023-03-15T22:44:38.572Z,13.32
2023-03-15T22:47:25.476Z,14.68
2023-03-15T22:50:15.678Z,15.65
2023-03-15T22:53:05.283Z,16.88
2023-03-15T22:55:51.447Z,17.77
2023-03-15T22:58:38.487Z,19.77
2023-03-15T23:01:26.237Z,20.88
2023-03-15T23:04:15.845Z,21.10
2023-03-15T23:07:03.729Z,22.88
2023-03-15T23:09:53.941Z,19.75
2023-03-15T23:12:43.660Z,21.45
2023-03-15T23:18:20.573Z,17.58
2023-03-15T23:21:08.937Z,18.40
2023-03-15T23:23:59.861Z,18.88
2023-03-15T23:26:47.067Z,16.10
2023-03-15T23:29:47.067Z,17.70
2023-03-15T23:32:40.740Z,16.67
2023-03-15T23:35:37.299Z,20.02
2023-03-15T23:38:25.384Z,21.95
2023-03-15T23:41:20.584Z,19.52
2023-03-15T23:44:11.103Z,22.90
2023-03-15T23:47:03.011Z,19.92
2023-03-15T23:49:53.349Z,20.15
2023-03-15T23:52:47.380Z,17.10
2023-03-15T23:55:36.662Z,18.27
2023-03-15T23:58:28.399Z,16.85
